createdAt,value
2017-09-21T00:01:41.938Z,82.56
2017-09-21T00:04:16.035Z,82.58
2017-09-21T00:06:50.080Z,82.51
2017-09-21T00:09:18.804Z,82.57
2017-09-21T00:11:47.081Z,82.53
2017-09-21T00:14:15.397Z,82.42
2017-09-21T00:16:43.724Z,82.56
2017-09-21T00:19:12.089Z,82.53
2017-09-21T00:21:40.479Z,82.80
2017-09-21T00:24:08.793Z,82.63
2017-09-21T00:26:37.509Z,83.13
2017-09-21T00:29:05.839Z,82.94
2017-09-21T00:31:34.156Z,82.71
2017-09-21T00:34:02.510Z,82.64
2017-09-21T00:36:31.190Z,82.62
2017-09-21T00:38:59.499Z,82.64
2017-09-21T00:41:27.839Z,82.74
2017-09-21T00:43:56.147Z,82.88
2017-09-21T00:46:24.487Z,82.84
2017-09-21T00:48:52.798Z,82.91
2017-09-21T00:51:21.112Z,82.92
2017-09-21T00:53:49.571Z,82.94
2017-09-21T00:56:17.990Z,82.92
2017-09-21T00:58:46.939Z,83.15
2017-09-21T01:01:15.299Z,83.23
2017-09-21T01:03:43.633Z,83.35
2017-09-21T01:06:12.035Z,83.53
2017-09-21T01:08:40.445Z,83.39
2017-09-21T01:11:08.797Z,83.39
2017-09-21T01:13:37.195Z,83.55
2017-09-21T01:16:05.579Z,83.48
2017-09-21T01:18:33.905Z,83.53
2017-09-21T01:21:02.211Z,83.58
2017-09-21T01:23:30.595Z,83.75
2017-09-21T01:25:58.942Z,84.54
2017-09-21T01:28:27.263Z,84.86
2017-09-21T01:30:55.604Z,84.94
2017-09-21T01:33:23.896Z,84.79
2017-09-21T01:35:52.369Z,84.72
2017-09-21T01:38:20.678Z,84.25
2017-09-21T01:40:49.123Z,84.36
2017-09-21T01:43:17.427Z,84.12
2017-09-21T01:45:45.756Z,84.17
2017-09-21T01:48:14.151Z,84.19
2017-09-21T01:50:42.507Z,84.33
2017-09-21T01:53:10.844Z,84.83
2017-09-21T01:55:39.201Z,84.48
2017-09-21T01:58:07.687Z,84.56
2017-09-21T02:00:36.216Z,84.45
2017-09-21T02:03:04.512Z,84.58
2017-09-21T02:05:33.611Z,84.58
2017-09-21T02:08:01.945Z,85.60
2017-09-21T02:10:30.481Z,85.31
2017-09-21T02:12:58.832Z,85.02
2017-09-21T02:15:27.259Z,85.22
2017-09-21T02:17:55.560Z,84.90
2017-09-21T02:20:23.877Z,84.77
2017-09-21T02:22:52.295Z,85.11
2017-09-21T02:25:20.775Z,85.02
2017-09-21T02:27:49.067Z,85.12
2017-09-21T02:30:17.375Z,85.03
2017-09-21T02:32:45.731Z,84.99
2017-09-21T02:35:14.060Z,85.35
2017-09-21T02:37:42.447Z,85.33
2017-09-21T02:40:10.792Z,85.29
2017-09-21T02:42:39.113Z,85.09
2017-09-21T02:45:07.443Z,85.23
2017-09-21T02:47:42.614Z,85.37
2017-09-21T02:50:10.967Z,85.42
2017-09-21T02:52:39.318Z,85.45
2017-09-21T02:55:07.693Z,85.48
2017-09-21T02:57:36.087Z,85.32
2017-09-21T03:00:04.461Z,85.54
2017-09-21T03:02:32.873Z,86.08
2017-09-21T03:05:01.375Z,86.08
2017-09-21T03:07:29.747Z,86.06
2017-09-21T03:09:58.078Z,85.98
2017-09-21T03:12:26.458Z,86.01
2017-09-21T03:14:54.737Z,86.29
2017-09-21T03:17:23.080Z,85.97
2017-09-21T03:19:51.408Z,86.10
2017-09-21T03:22:19.838Z,86.12
2017-09-21T03:24:48.135Z,86.23
2017-09-21T03:27:16.531Z,86.12
2017-09-21T03:29:44.855Z,86.21
2017-09-21T03:32:13.225Z,86.27
2017-09-21T03:34:41.620Z,86.03
2017-09-21T03:37:10.015Z,86.23
2017-09-21T03:39:38.462Z,86.08
2017-09-21T03:42:06.820Z,86.81
2017-09-21T03:44:35.120Z,86.57
2017-09-21T03:47:03.505Z,86.50
2017-09-21T03:49:31.811Z,86.86
2017-09-21T03:52:00.561Z,86.99
2017-09-21T03:54:28.893Z,87.22
2017-09-21T03:56:57.308Z,87.12
2017-09-21T03:59:25.645Z,87.17
2017-09-21T04:04:49.544Z,87.06
2017-09-21T04:07:17.885Z,86.82
2017-09-21T04:09:52.736Z,87.46
2017-09-21T04:12:21.068Z,87.13
2017-09-21T04:14:49.412Z,86.98
2017-09-21T04:17:17.785Z,86.86
2017-09-21T04:19:46.081Z,87.46
2017-09-21T04:22:14.406Z,87.18
2017-09-21T04:24:42.684Z,87.78
2017-09-21T04:27:11.128Z,87.44
2017-09-21T04:29:39.388Z,87.24
2017-09-21T04:32:07.728Z,87.22
2017-09-21T04:34:35.981Z,87.54
2017-09-21T04:37:04.952Z,87.80
2017-09-21T04:39:33.223Z,87.42
2017-09-21T04:42:01.557Z,87.56
2017-09-21T04:44:29.930Z,87.35
2017-09-21T04:46:58.307Z,87.71
2017-09-21T04:49:26.639Z,87.32
2017-09-21T04:51:54.960Z,87.71
2017-09-21T04:54:23.241Z,88.15
2017-09-21T04:56:51.587Z,88.12
2017-09-21T04:59:19.942Z,88.08
2017-09-21T05:01:48.269Z,87.77
2017-09-21T05:04:17.348Z,87.70
2017-09-21T05:06:46.445Z,87.68
2017-09-21T05:09:14.692Z,87.93
2017-09-21T05:11:42.964Z,87.87
2017-09-21T05:14:11.283Z,88.02
2017-09-21T05:16:39.892Z,88.07
2017-09-21T05:19:08.157Z,87.79
2017-09-21T05:21:36.443Z,87.92
2017-09-21T05:24:04.701Z,88.38
2017-09-21T05:26:32.985Z,87.63
2017-09-21T05:29:01.408Z,87.30
2017-09-21T05:31:29.693Z,87.34
2017-09-21T05:33:58.012Z,87.36
2017-09-21T05:36:26.310Z,87.50
2017-09-21T05:38:54.623Z,87.21
2017-09-21T05:41:22.939Z,87.17
2017-09-21T05:43:51.353Z,87.08
2017-09-21T05:46:19.643Z,87.04
2017-09-21T05:48:48.146Z,87.02
2017-09-21T05:51:16.404Z,87.60
2017-09-21T05:53:44.633Z,86.79
2017-09-21T05:56:12.885Z,87.05
2017-09-21T05:58:41.131Z,86.66
2017-09-21T06:01:09.582Z,86.30
2017-09-21T06:03:37.857Z,86.11
2017-09-21T06:06:06.332Z,85.86
2017-09-21T06:08:34.892Z,85.72
2017-09-21T06:11:03.312Z,85.67
2017-09-21T06:13:31.636Z,85.45
2017-09-21T06:16:00.265Z,84.91
2017-09-21T06:18:28.540Z,85.33
2017-09-21T06:20:57.104Z,84.70
2017-09-21T06:23:25.822Z,84.82
2017-09-21T06:25:54.084Z,84.52
2017-09-21T06:28:22.497Z,84.50
2017-09-21T06:30:50.758Z,83.80
2017-09-21T06:33:20.698Z,84.02
2017-09-21T06:35:50.143Z,83.83
2017-09-21T06:38:23.801Z,83.85
2017-09-21T06:40:53.785Z,83.53
2017-09-21T06:43:22.529Z,83.52
2017-09-21T06:45:50.944Z,83.58
2017-09-21T06:48:19.451Z,83.36
2017-09-21T06:50:47.907Z,82.58
2017-09-21T06:53:16.257Z,82.78
2017-09-21T06:55:44.591Z,82.63
2017-09-21T06:58:12.854Z,82.57
2017-09-21T07:00:41.706Z,82.30
2017-09-21T07:03:10.270Z,81.68
2017-09-21T07:05:39.717Z,81.63
2017-09-21T07:08:07.984Z,81.80
2017-09-21T07:10:49.476Z,81.63
2017-09-21T07:13:18.173Z,81.85
2017-09-21T07:15:47.572Z,81.29
2017-09-21T07:18:22.091Z,80.94
2017-09-21T07:20:51.703Z,81.37
2017-09-21T07:23:21.601Z,81.42
2017-09-21T07:25:53.800Z,81.31
2017-09-21T07:28:24.769Z,80.68
2017-09-21T07:30:55.302Z,80.39
2017-09-21T07:33:24.725Z,80.23
2017-09-21T07:35:53.486Z,80.15
2017-09-21T07:38:21.802Z,80.16
2017-09-21T07:40:50.070Z,79.19
2017-09-21T07:43:18.381Z,79.66
2017-09-21T07:45:46.677Z,79.90
2017-09-21T07:48:15.041Z,79.63
2017-09-21T07:50:43.393Z,79.13
2017-09-21T07:53:11.725Z,78.81
2017-09-21T07:55:40.045Z,78.70
2017-09-21T07:58:08.411Z,78.88
2017-09-21T08:03:16.378Z,78.57
2017-09-21T08:05:45.488Z,78.90
2017-09-21T08:08:14.356Z,79.19
2017-09-21T08:10:42.668Z,79.22
2017-09-21T08:13:10.927Z,79.27
2017-09-21T08:15:39.346Z,79.30
2017-09-21T08:18:08.457Z,79.11
2017-09-21T08:20:36.759Z,77.75
2017-09-21T08:23:05.005Z,77.87
2017-09-21T08:25:33.265Z,77.56
2017-09-21T08:28:01.516Z,77.03
2017-09-21T08:30:30.076Z,76.47
2017-09-21T08:32:58.308Z,76.84
2017-09-21T08:35:26.568Z,76.69
2017-09-21T08:37:54.849Z,76.60
2017-09-21T08:40:23.136Z,76.07
2017-09-21T08:42:51.528Z,76.53
2017-09-21T08:45:19.835Z,76.17
2017-09-21T08:47:48.348Z,76.52
2017-09-21T08:50:16.863Z,76.57
2017-09-21T08:52:45.121Z,75.31
2017-09-21T08:55:13.609Z,74.00
2017-09-21T08:57:42.330Z,74.00
2017-09-21T09:00:10.585Z,74.15
2017-09-21T09:02:39.420Z,73.95
2017-09-21T09:05:07.685Z,72.42
2017-09-21T09:07:37.428Z,73.30
2017-09-21T09:10:06.997Z,73.62
2017-09-21T09:12:35.685Z,73.52
2017-09-21T09:15:04.265Z,73.29
2017-09-21T09:17:39.616Z,73.00
2017-09-21T09:20:10.468Z,71.97
2017-09-21T09:22:39.629Z,71.26
2017-09-21T09:25:07.919Z,69.66
2017-09-21T09:27:36.185Z,69.01
2017-09-21T09:30:04.528Z,67.82
2017-09-21T09:32:32.808Z,67.08
2017-09-21T09:35:01.052Z,66.68
2017-09-21T09:37:29.653Z,68.25
2017-09-21T09:39:58.020Z,66.60
2017-09-21T09:42:26.349Z,67.64
2017-09-21T09:44:54.602Z,67.26
2017-09-21T09:47:22.936Z,67.97
2017-09-21T09:49:51.183Z,67.71
2017-09-21T09:52:19.521Z,67.15
2017-09-21T09:54:47.735Z,66.55
2017-09-21T09:57:16.040Z,64.27
2017-09-21T09:59:44.676Z,62.50
2017-09-21T10:02:14.996Z,57.04
2017-09-21T10:04:43.285Z,54.24
2017-09-21T10:07:11.566Z,52.18
2017-09-21T10:09:40.244Z,55.37
2017-09-21T10:12:08.520Z,56.60
2017-09-21T10:14:36.738Z,56.77
2017-09-21T10:17:05.061Z,56.46
2017-09-21T10:19:33.289Z,55.51
2017-09-21T10:22:01.945Z,52.37
2017-09-21T10:24:30.327Z,52.89
2017-09-21T10:26:58.599Z,55.35
2017-09-21T10:29:26.824Z,57.33
2017-09-21T10:31:55.076Z,58.14
2017-09-21T10:34:23.314Z,57.45
2017-09-21T10:36:51.766Z,54.49
2017-09-21T10:39:20.181Z,53.31
2017-09-21T10:41:48.457Z,53.27
2017-09-21T10:44:16.764Z,52.64
2017-09-21T10:46:45.060Z,53.91
2017-09-21T10:49:14.237Z,54.86
2017-09-21T10:51:42.590Z,56.28
2017-09-21T10:54:10.838Z,58.44
2017-09-21T10:56:39.141Z,58.62
2017-09-21T10:59:07.419Z,58.00
2017-09-21T11:01:35.730Z,57.11
2017-09-21T11:04:04.022Z,57.59
2017-09-21T11:06:32.757Z,58.63
2017-09-21T11:09:00.994Z,59.68
2017-09-21T11:11:29.309Z,60.47
2017-09-21T11:13:57.832Z,59.88
2017-09-21T11:16:26.103Z,60.59
2017-09-21T11:18:54.481Z,61.66
2017-09-21T11:21:23.347Z,62.66
2017-09-21T11:23:51.616Z,62.70
2017-09-21T11:26:19.907Z,62.90
2017-09-21T11:28:48.159Z,64.51
2017-09-21T11:31:18.004Z,63.62
2017-09-21T11:33:46.548Z,64.03
2017-09-21T11:36:14.889Z,65.15
2017-09-21T11:38:43.142Z,65.63
2017-09-21T11:41:11.491Z,64.08
2017-09-21T11:43:39.710Z,64.96
2017-09-21T11:46:07.966Z,64.54
2017-09-21T11:48:36.229Z,65.47
2017-09-21T11:51:04.484Z,66.82
2017-09-21T11:53:32.815Z,67.41
2017-09-21T11:56:01.076Z,66.70
2017-09-21T11:58:29.343Z,67.34
2017-09-21T12:00:57.606Z,68.04
2017-09-21T12:03:25.838Z,68.14
2017-09-21T12:05:56.419Z,68.26
2017-09-21T12:08:25.114Z,69.12
2017-09-21T12:10:53.471Z,69.04
2017-09-21T12:13:21.728Z,69.19
2017-09-21T12:15:50.177Z,70.43
2017-09-21T12:18:18.430Z,70.64
2017-09-21T12:20:46.689Z,69.96
2017-09-21T12:23:15.119Z,70.44
2017-09-21T12:25:43.380Z,70.26
2017-09-21T12:28:11.640Z,69.37
2017-09-21T12:30:39.939Z,69.54
2017-09-21T12:33:08.337Z,69.41
2017-09-21T12:35:36.622Z,69.90
2017-09-21T12:38:05.030Z,70.79
2017-09-21T12:40:33.293Z,69.90
2017-09-21T12:43:01.579Z,70.14
2017-09-21T12:45:29.897Z,70.17
2017-09-21T12:47:58.137Z,70.19
2017-09-21T12:50:26.447Z,70.73
2017-09-21T12:52:54.673Z,70.29
2017-09-21T12:55:23.242Z,70.51
2017-09-21T12:57:51.477Z,70.08
2017-09-21T13:00:19.752Z,71.05
2017-09-21T13:02:48.008Z,70.45
2017-09-21T13:05:16.279Z,70.92
2017-09-21T13:07:44.569Z,70.88
2017-09-21T13:10:12.910Z,71.92
2017-09-21T13:12:41.176Z,70.50
2017-09-21T13:15:09.437Z,71.20
2017-09-21T13:17:37.678Z,70.77
2017-09-21T13:20:05.952Z,70.25
2017-09-21T13:22:34.222Z,69.86
2017-09-21T13:25:02.555Z,69.13
2017-09-21T13:27:30.996Z,69.11
2017-09-21T13:29:59.249Z,69.64
2017-09-21T13:32:27.541Z,68.78
2017-09-21T13:34:55.853Z,68.74
2017-09-21T13:37:24.313Z,69.33
2017-09-21T13:39:52.624Z,67.28
2017-09-21T13:42:20.985Z,67.03
2017-09-21T13:44:49.220Z,67.10
2017-09-21T13:47:17.496Z,66.57
2017-09-21T13:49:45.800Z,66.55
2017-09-21T13:52:14.385Z,66.83
2017-09-21T13:54:42.729Z,66.40
2017-09-21T13:57:11.022Z,66.63
2017-09-21T13:59:39.845Z,65.96
2017-09-21T14:02:08.085Z,66.33
2017-09-21T14:04:36.344Z,65.91
2017-09-21T14:07:04.616Z,65.75
2017-09-21T14:09:32.850Z,65.34
2017-09-21T14:12:01.204Z,65.16
2017-09-21T14:14:29.457Z,66.26
2017-09-21T14:16:57.736Z,65.72
2017-09-21T14:19:25.969Z,65.06
2017-09-21T14:22:08.684Z,65.38
2017-09-21T14:24:37.772Z,65.67
2017-09-21T14:27:06.744Z,65.00
2017-09-21T14:29:34.997Z,65.49
2017-09-21T14:32:03.298Z,65.30
2017-09-21T14:34:31.694Z,65.66
2017-09-21T14:37:00.080Z,66.22
2017-09-21T14:39:28.356Z,65.71
2017-09-21T14:41:56.701Z,66.05
2017-09-21T14:44:25.025Z,66.08
2017-09-21T14:46:53.317Z,66.64
2017-09-21T14:49:26.948Z,66.45
2017-09-21T14:51:56.213Z,66.21
2017-09-21T14:54:24.499Z,67.00
2017-09-21T14:56:52.783Z,67.58
2017-09-21T14:59:21.001Z,67.34
2017-09-21T15:01:49.321Z,67.27
2017-09-21T15:04:26.030Z,67.43
2017-09-21T15:06:54.710Z,68.00
2017-09-21T15:09:26.990Z,67.92
2017-09-21T15:12:12.953Z,68.25
2017-09-21T15:14:48.860Z,69.08
2017-09-21T15:17:35.807Z,68.48
2017-09-21T15:20:16.611Z,67.74
2017-09-21T15:22:50.382Z,67.85
2017-09-21T15:25:20.980Z,68.14
2017-09-21T15:27:56.338Z,68.59
2017-09-21T15:30:32.430Z,68.83
2017-09-21T15:33:07.989Z,69.30
2017-09-21T15:35:55.143Z,69.53
2017-09-21T15:38:26.155Z,68.89
2017-09-21T15:41:08.284Z,68.75
2017-09-21T15:43:44.790Z,69.41
2017-09-21T15:46:15.412Z,69.35
2017-09-21T15:48:52.324Z,69.25
2017-09-21T15:51:30.644Z,69.47
2017-09-21T15:54:09.596Z,69.08
2017-09-21T15:56:52.933Z,69.51
2017-09-21T15:59:26.384Z,69.45
2017-09-21T16:01:59.444Z,69.50
2017-09-21T16:04:40.279Z,69.84
2017-09-21T16:07:24.493Z,69.59
2017-09-21T16:09:56.432Z,70.60
2017-09-21T16:12:35.432Z,70.56
2017-09-21T16:15:11.418Z,70.25
2017-09-21T16:17:54.563Z,69.87
2017-09-21T16:20:28.473Z,70.31
2017-09-21T16:22:58.642Z,71.07
2017-09-21T16:25:30.574Z,71.04
2017-09-21T16:28:04.373Z,71.05
2017-09-21T16:30:39.258Z,71.51
2017-09-21T16:33:14.128Z,72.54
2017-09-21T16:35:47.312Z,73.15
2017-09-21T16:38:16.852Z,72.57
2017-09-21T16:40:45.660Z,72.76
2017-09-21T16:43:16.269Z,73.07
2017-09-21T16:45:51.817Z,72.83
2017-09-21T16:48:26.629Z,72.79
2017-09-21T16:53:34.803Z,72.88
2017-09-21T16:56:11.824Z,73.39
2017-09-21T16:58:42.581Z,73.72
2017-09-21T17:01:13.509Z,73.66
2017-09-21T17:03:44.959Z,74.11
2017-09-21T17:06:17.040Z,74.19
2017-09-21T17:08:46.565Z,73.86
2017-09-21T17:11:20.347Z,74.31
2017-09-21T17:13:57.770Z,74.12
2017-09-21T17:16:32.491Z,74.32
2017-09-21T17:19:02.385Z,74.85
2017-09-21T17:21:44.872Z,74.86
2017-09-21T17:24:24.777Z,74.95
2017-09-21T17:26:57.753Z,75.06
2017-09-21T17:29:31.510Z,75.21
2017-09-21T17:32:04.884Z,75.68
2017-09-21T17:34:34.045Z,76.10
2017-09-21T17:37:10.210Z,76.87
2017-09-21T17:39:38.775Z,76.15
2017-09-21T17:42:09.463Z,76.43
2017-09-21T17:44:38.262Z,76.36
2017-09-21T17:47:10.272Z,76.99
2017-09-21T17:49:49.390Z,76.71
2017-09-21T17:52:30.134Z,77.02
2017-09-21T17:55:05.780Z,76.72
2017-09-21T17:57:43.111Z,77.29
2017-09-21T18:00:14.252Z,77.59
2017-09-21T18:02:47.027Z,77.88
2017-09-21T18:05:23.722Z,78.23
2017-09-21T18:08:00.347Z,78.54
2017-09-21T18:10:28.708Z,78.17
2017-09-21T18:13:04.537Z,78.37
2017-09-21T18:15:41.764Z,78.41
2017-09-21T18:18:17.702Z,78.64
2017-09-21T18:20:48.738Z,78.60
2017-09-21T18:23:20.770Z,79.05
2017-09-21T18:26:00.346Z,78.89
2017-09-21T18:28:38.978Z,79.10
2017-09-21T18:31:07.687Z,79.57
2017-09-21T18:33:57.607Z,79.38
2017-09-21T18:36:54.297Z,80.17
2017-09-21T18:39:23.613Z,79.95
2017-09-21T18:41:57.198Z,80.10
2017-09-21T18:44:28.548Z,79.83
2017-09-21T18:47:06.503Z,80.12
2017-09-21T18:49:35.096Z,80.50
2017-09-21T18:52:05.575Z,80.58
2017-09-21T18:54:42.846Z,80.98
2017-09-21T18:57:14.108Z,81.52
2017-09-21T18:59:45.404Z,81.22
2017-09-21T19:02:14.568Z,81.31
2017-09-21T19:04:47.205Z,81.38
2017-09-21T19:07:17.929Z,81.93
2017-09-21T19:09:46.664Z,82.16
2017-09-21T19:12:15.143Z,81.94
2017-09-21T19:14:43.575Z,81.98
2017-09-21T19:17:12.135Z,81.80
2017-09-21T19:19:40.549Z,81.95
2017-09-21T19:22:09.260Z,82.24
2017-09-21T19:24:37.906Z,82.54
2017-09-21T19:27:06.427Z,83.08
2017-09-21T19:29:35.124Z,82.30
2017-09-21T19:32:08.895Z,82.62
2017-09-21T19:34:43.650Z,82.57
2017-09-21T19:37:13.232Z,82.55
2017-09-21T19:39:42.935Z,82.90
2017-09-21T19:42:16.396Z,82.93
2017-09-21T19:44:51.836Z,82.95
2017-09-21T19:47:30.276Z,82.95
2017-09-21T19:50:10.104Z,82.79
2017-09-21T19:52:41.055Z,83.15
2017-09-21T19:55:10.119Z,83.43
2017-09-21T19:57:41.543Z,83.23
2017-09-21T20:00:16.458Z,83.72
2017-09-21T20:02:57.584Z,83.80
2017-09-21T20:05:29.081Z,83.25
2017-09-21T20:07:58.157Z,83.56
2017-09-21T20:10:47.958Z,83.62
2017-09-21T20:13:29.645Z,83.76
2017-09-21T20:15:59.556Z,84.03
2017-09-21T20:18:29.917Z,84.00
2017-09-21T20:21:02.403Z,84.22
2017-09-21T20:23:41.256Z,84.38
2017-09-21T20:26:35.393Z,84.22
2017-09-21T20:30:16.265Z,85.12
2017-09-21T20:32:44.882Z,84.30
2017-09-21T20:35:13.301Z,84.37
2017-09-21T20:37:43.203Z,84.34
2017-09-21T20:40:11.846Z,84.56
2017-09-21T20:42:40.164Z,84.81
2017-09-21T20:45:09.060Z,84.89
2017-09-21T20:47:37.885Z,84.59
2017-09-21T20:50:06.281Z,84.90
2017-09-21T20:52:34.960Z,84.64
2017-09-21T20:55:03.969Z,85.29
2017-09-21T20:57:32.348Z,85.48
2017-09-21T21:00:00.777Z,85.36
2017-09-21T21:02:29.487Z,85.07
2017-09-21T21:04:57.926Z,85.34
2017-09-21T21:07:26.762Z,85.10
2017-09-21T21:09:55.415Z,85.08
2017-09-21T21:12:23.906Z,85.19
2017-09-21T21:14:52.566Z,85.16
2017-09-21T21:17:21.292Z,85.54
2017-09-21T21:19:51.049Z,85.18
2017-09-21T21:22:19.764Z,84.96
2017-09-21T21:24:49.315Z,85.35
2017-09-21T21:27:17.821Z,85.08
2017-09-21T21:29:46.117Z,85.48
2017-09-21T21:32:14.596Z,85.36
2017-09-21T21:34:44.940Z,85.19
2017-09-21T21:37:14.119Z,85.34
2017-09-21T21:39:42.496Z,85.23
2017-09-21T21:42:10.920Z,85.50
2017-09-21T21:44:39.195Z,85.47
2017-09-21T21:47:07.630Z,85.33
2017-09-21T21:49:36.271Z,86.19
2017-09-21T21:52:06.116Z,85.90
2017-09-21T21:54:35.148Z,85.69
2017-09-21T21:57:05.340Z,85.98
2017-09-21T21:59:33.996Z,85.82
2017-09-21T22:02:02.341Z,85.78
2017-09-21T22:04:30.692Z,86.11
2017-09-21T22:07:00.064Z,85.74
2017-09-21T22:09:29.077Z,86.37
2017-09-21T22:11:57.606Z,86.18
2017-09-21T22:14:26.079Z,85.85
2017-09-21T22:16:54.601Z,86.33
2017-09-21T22:19:23.108Z,86.40
2017-09-21T22:21:52.566Z,85.93
2017-09-21T22:24:21.666Z,85.86
2017-09-21T22:26:50.453Z,86.02
2017-09-21T22:29:20.429Z,86.46
2017-09-21T22:31:49.249Z,86.24
2017-09-21T22:34:17.525Z,86.25
2017-09-21T22:36:45.885Z,86.26
2017-09-21T22:39:14.221Z,86.26
2017-09-21T22:41:42.749Z,86.45
2017-09-21T22:44:11.043Z,86.36
2017-09-21T22:46:39.417Z,86.20
2017-09-21T22:49:07.740Z,86.52
2017-09-21T22:51:36.106Z,86.52
2017-09-21T22:54:04.457Z,86.55
2017-09-21T22:56:32.801Z,86.43
2017-09-21T22:59:02.345Z,86.22
2017-09-21T23:01:31.644Z,86.48
2017-09-21T23:04:00.684Z,86.84
2017-09-21T23:06:29.360Z,86.56
2017-09-21T23:08:57.766Z,86.42
2017-09-21T23:11:29.508Z,86.84
2017-09-21T23:13:58.008Z,86.63
2017-09-21T23:16:26.919Z,86.65
2017-09-21T23:18:56.080Z,86.67
2017-09-21T23:21:24.479Z,86.52
2017-09-21T23:23:52.761Z,86.93
2017-09-21T23:26:21.278Z,86.76
2017-09-21T23:28:49.795Z,87.04
2017-09-21T23:31:18.425Z,86.97
2017-09-21T23:33:47.405Z,86.93
2017-09-21T23:36:16.574Z,86.90
2017-09-21T23:38:45.037Z,86.72
2017-09-21T23:41:17.146Z,86.70
2017-09-21T23:43:45.708Z,86.83
2017-09-21T23:46:14.441Z,86.89
2017-09-21T23:48:43.485Z,86.80
2017-09-21T23:51:13.215Z,86.83
2017-09-21T23:53:41.892Z,86.83
2017-09-21T23:56:10.392Z,87.66
2017-09-21T23:58:39.728Z,87.27
